PWSweather.com
Personal Weather Stations
Station Observations
SEVANL01
SevillaES 41004

SevillaES 41004

Lat: 37.383633, Lon: -5.985787

Elevation: 19.685

Station Type: Davis Vantage Pro2

Latest ConditionsUpdated 10:40:04 AM GMT+01:01 Sunday, Feb 14, 2016
Currently Today's Max Today's Min Today's Average
Temperature 58.8°F14.9°C 60.6°F15.9°C 56.3°F13.5°C 58.7°F14.8°C
Dew Point 51.3°F10.7°C 58.2°F14.6°C 51.3°F10.7°C 54.6°F12.6°C
Winds 7.0 mph WSW11.3 kmh WSW 7.0 mph WSW11.3 kmh WSW - 3.5 mph 5.6 kmh
Wind Gusts 21.0 mph33.8 kmh 21.0 mph33.8 kmh - -
Humidity 76% 93% 76% 86%
Pressure 29.90 in1012.5 mb 29.98 in1015.2 mb 29.89 in1012.2 mb -
Precipitation - 0.02 in0.5 mm - -
Hour Temp Dew Point Humidity Winds Wind Gusts Pressure Precip Precip Rate Daily Precip Total
10:40 AM 58.8°F14.9°C 51.3°F10.7°C 76% 7.0 mph WSW11.3 kmh WSW 21.0 mph33.8 kmh 29.90 in1012.5 mb 0.01 in0.3 mm 0.00 in0.0 mm 0.02 in0.5 mm
10:20 AM 58.5°F14.7°C 52.0°F11.1°C 79% 5.0 mph WSW8.0 kmh WSW 19.0 mph30.6 kmh 29.90 in1012.5 mb 0.02 in0.5 mm 0.03 in0.8 mm 0.02 in0.5 mm
10:00 AM 59.0°F15.0°C 52.1°F11.2°C 78% 5.0 mph WSW8.0 kmh WSW 18.0 mph29.0 kmh 29.90 in1012.5 mb 0.01 in0.3 mm 0.00 in0.0 mm 0.02 in0.5 mm
09:40 AM 59.0°F15.0°C 52.1°F11.2°C 78% 5.0 mph WSW8.0 kmh WSW 17.0 mph27.4 kmh 29.90 in1012.5 mb 0.01 in0.3 mm 0.03 in0.8 mm 0.02 in0.5 mm
09:20 AM 58.5°F14.7°C 52.0°F11.1°C 79% 3.0 mph W4.8 kmh W 15.0 mph24.1 kmh 29.90 in1012.5 mb 0.00 in0.0 mm 0.00 in0.0 mm 0.01 in0.3 mm
09:00 AM 57.7°F14.3°C 52.3°F11.3°C 82% 5.0 mph W8.0 kmh W 13.0 mph20.9 kmh 29.89 in1012.2 mb 0.00 in0.0 mm 0.00 in0.0 mm 0.01 in0.3 mm
08:40 AM 56.8°F13.8°C 52.7°F11.5°C 86% 5.0 mph SW8.0 kmh SW 17.0 mph27.4 kmh 29.89 in1012.2 mb 0.00 in0.0 mm 0.00 in0.0 mm 0.01 in0.3 mm
08:20 AM 56.7°F13.7°C 52.8°F11.6°C 87% 2.0 mph SW3.2 kmh SW 8.0 mph12.9 kmh 29.89 in1012.2 mb 0.00 in0.0 mm 0.00 in0.0 mm 0.01 in0.3 mm
08:00 AM 56.3°F13.5°C 52.8°F11.6°C 88% 1.0 mph SW1.6 kmh SW 11.0 mph17.7 kmh 29.89 in1012.2 mb 0.00 in0.0 mm 0.00 in0.0 mm 0.01 in0.3 mm
07:40 AM 56.7°F13.7°C 52.8°F11.6°C 87% 4.0 mph SW6.4 kmh SW 14.0 mph22.5 kmh 29.89 in1012.2 mb 0.00 in0.0 mm 0.00 in0.0 mm 0.01 in0.3 mm
07:20 AM 57.4°F14.1°C 53.2°F11.8°C 86% 4.0 mph SW6.4 kmh SW 18.0 mph29.0 kmh 29.90 in1012.5 mb 0.00 in0.0 mm 0.00 in0.0 mm 0.01 in0.3 mm
07:00 AM 57.4°F14.1°C 53.2°F11.8°C 86% 6.0 mph WSW9.7 kmh WSW 14.0 mph22.5 kmh 29.91 in1012.9 mb 0.00 in0.0 mm 0.00 in0.0 mm 0.01 in0.3 mm
06:40 AM 57.6°F14.2°C 53.4°F11.9°C 86% 3.0 mph WSW4.8 kmh WSW 15.0 mph24.1 kmh 29.90 in1012.5 mb 0.00 in0.0 mm 0.00 in0.0 mm 0.01 in0.3 mm
06:20 AM 57.4°F14.1°C 53.2°F11.8°C 86% 3.0 mph WSW4.8 kmh WSW 13.0 mph20.9 kmh 29.90 in1012.5 mb 0.00 in0.0 mm 0.00 in0.0 mm 0.01 in0.3 mm
06:00 AM 57.4°F14.1°C 53.5°F11.9°C 87% 1.0 mph SW1.6 kmh SW 10.0 mph16.1 kmh 29.91 in1012.9 mb 0.00 in0.0 mm 0.00 in0.0 mm 0.01 in0.3 mm
05:40 AM 57.7°F14.3°C 53.9°F12.2°C 87% 4.0 mph WSW6.4 kmh WSW 15.0 mph24.1 kmh 29.92 in1013.2 mb 0.00 in0.0 mm 0.00 in0.0 mm 0.01 in0.3 mm
05:20 AM 57.9°F14.4°C 54.1°F12.3°C 87% 4.0 mph WSW6.4 kmh WSW 14.0 mph22.5 kmh 29.92 in1013.2 mb 0.00 in0.0 mm 0.00 in0.0 mm 0.01 in0.3 mm
05:00 AM 57.9°F14.4°C 54.4°F12.4°C 88% 3.0 mph WSW4.8 kmh WSW 12.0 mph19.3 kmh 29.92 in1013.2 mb 0.00 in0.0 mm 0.00 in0.0 mm 0.01 in0.3 mm
04:40 AM 58.3°F14.6°C 54.4°F12.4°C 87% 2.0 mph WSW3.2 kmh WSW 12.0 mph19.3 kmh 29.93 in1013.5 mb 0.00 in0.0 mm 0.00 in0.0 mm 0.01 in0.3 mm
04:20 AM 58.6°F14.8°C 54.8°F12.7°C 87% Calm Calm 12.0 mph19.3 kmh 29.95 in1014.2 mb 0.00 in0.0 mm 0.00 in0.0 mm 0.01 in0.3 mm
04:00 AM 58.8°F14.9°C 55.0°F12.8°C 87% 1.0 mph WSW1.6 kmh WSW 12.0 mph19.3 kmh 29.95 in1014.2 mb 0.00 in0.0 mm 0.00 in0.0 mm 0.01 in0.3 mm
03:40 AM 59.2°F15.1°C 55.3°F12.9°C 87% 2.0 mph SW3.2 kmh SW 3.0 mph4.8 kmh 29.95 in1014.2 mb 0.00 in0.0 mm 0.00 in0.0 mm 0.01 in0.3 mm
03:20 AM 59.5°F15.3°C 55.7°F13.2°C 87% 3.0 mph WSW4.8 kmh WSW 11.0 mph17.7 kmh 29.96 in1014.6 mb 0.00 in0.0 mm 0.00 in0.0 mm 0.01 in0.3 mm
03:00 AM 59.9°F15.5°C 56.0°F13.3°C 87% 1.0 mph WSW1.6 kmh WSW 10.0 mph16.1 kmh 29.96 in1014.6 mb 0.00 in0.0 mm 0.00 in0.0 mm 0.01 in0.3 mm
02:40 AM 60.3°F15.7°C 56.7°F13.7°C 88% 2.0 mph WSW3.2 kmh WSW 13.0 mph20.9 kmh 29.96 in1014.6 mb 0.00 in0.0 mm 0.00 in0.0 mm 0.01 in0.3 mm
02:20 AM 60.4°F15.8°C 57.2°F14.0°C 89% 2.0 mph W3.2 kmh W 13.0 mph20.9 kmh 29.96 in1014.6 mb 0.00 in0.0 mm 0.00 in0.0 mm 0.01 in0.3 mm
02:00 AM 60.6°F15.9°C 57.7°F14.3°C 90% 5.0 mph WSW8.0 kmh WSW 16.0 mph25.7 kmh 29.96 in1014.6 mb 0.01 in0.3 mm 0.00 in0.0 mm 0.01 in0.3 mm
01:40 AM 60.4°F15.8°C 58.1°F14.5°C 92% 3.0 mph WSW4.8 kmh WSW 15.0 mph24.1 kmh 29.96 in1014.6 mb 0.01 in0.3 mm 0.00 in0.0 mm 0.01 in0.3 mm
01:20 AM 60.3°F15.7°C 58.2°F14.6°C 93% 3.0 mph SW4.8 kmh SW 14.0 mph22.5 kmh 29.96 in1014.6 mb 0.01 in0.3 mm 0.03 in0.8 mm 0.01 in0.3 mm
01:00 AM 60.6°F15.9°C 58.0°F14.4°C 91% 6.0 mph SW9.7 kmh SW 15.0 mph24.1 kmh 29.96 in1014.6 mb 0.00 in0.0 mm 0.00 in0.0 mm 0.00 in0.0 mm
12:40 AM 60.6°F15.9°C 58.0°F14.4°C 91% 6.0 mph SW9.7 kmh SW 15.0 mph24.1 kmh 29.97 in1014.9 mb 0.00 in0.0 mm 0.00 in0.0 mm 0.00 in0.0 mm
12:20 AM 60.4°F15.8°C 57.8°F14.3°C 91% 6.0 mph SW9.7 kmh SW 19.0 mph30.6 kmh 29.98 in1015.2 mb 0.00 in0.0 mm 0.00 in0.0 mm 0.00 in0.0 mm
12:00 AM 60.4°F15.8°C 57.8°F14.3°C 91% 5.0 mph SW8.0 kmh SW 18.0 mph29.0 kmh 29.98 in1015.2 mb 0.00 in0.0 mm 0.00 in0.0 mm 0.00 in0.0 mm